sensor_id;sensor_type;location;lat;lon;timestamp;P1;durP1;ratioP1;P2;durP2;ratioP2
1533;SDS011;760;48.822;9.304;2022-10-31T04:04:06;3.28;;;2.75;;
1533;SDS011;760;48.822;9.304;2022-10-31T04:06:33;6.75;;;3.58;;
1533;SDS011;760;48.822;9.304;2022-10-31T04:09:02;3.60;;;3.38;;
1533;SDS011;760;48.822;9.304;2022-10-31T04:11:30;3.47;;;3.17;;
1533;SDS011;760;48.822;9.304;2022-10-31T04:14:00;4.97;;;3.85;;
1533;SDS011;760;48.822;9.304;2022-10-31T04:16:28;3.42;;;3.20;;
1533;SDS011;760;48.822;9.304;2022-10-31T04:18:54;5.50;;;3.60;;
1533;SDS011;760;48.822;9.304;2022-10-31T04:21:19;3.60;;;3.30;;
1533;SDS011;760;48.822;9.304;2022-10-31T04:23:51;6.22;;;3.67;;
1533;SDS011;760;48.822;9.304;2022-10-31T04:26:16;2.63;;;2.43;;
1533;SDS011;760;48.822;9.304;2022-10-31T04:28:42;3.60;;;3.40;;
1533;SDS011;760;48.822;9.304;2022-10-31T04:31:08;4.40;;;4.00;;
1533;SDS011;760;48.822;9.304;2022-10-31T04:33:35;7.20;;;3.38;;
1533;SDS011;760;48.822;9.304;2022-10-31T04:36:01;4.30;;;3.00;;
1533;SDS011;760;48.822;9.304;2022-10-31T04:38:26;4.33;;;3.93;;
1533;SDS011;760;48.822;9.304;2022-10-31T04:40:52;4.03;;;3.63;;
1533;SDS011;760;48.822;9.304;2022-10-31T04:43:18;6.03;;;3.40;;
1533;SDS011;760;48.822;9.304;2022-10-31T04:45:43;3.40;;;3.10;;
1533;SDS011;760;48.822;9.304;2022-10-31T04:48:09;3.50;;;3.20;;
1533;SDS011;760;48.822;9.304;2022-10-31T04:50:34;3.63;;;3.33;;
1533;SDS011;760;48.822;9.304;2022-10-31T04:53:00;4.30;;;3.60;;
1533;SDS011;760;48.822;9.304;2022-10-31T04:55:26;3.97;;;3.60;;
1533;SDS011;760;48.822;9.304;2022-10-31T04:57:51;3.40;;;3.20;;
1533;SDS011;760;48.822;9.304;2022-10-31T05:00:18;5.80;;;3.23;;
1533;SDS011;760;48.822;9.304;2022-10-31T05:02:49;6.47;;;4.47;;
1533;SDS011;760;48.822;9.304;2022-10-31T05:05:23;4.68;;;4.38;;
1533;SDS011;760;48.822;9.304;2022-10-31T05:07:50;4.43;;;3.75;;
1533;SDS011;760;48.822;9.304;2022-10-31T05:10:17;2.97;;;2.70;;
1533;SDS011;760;48.822;9.304;2022-10-31T05:15:14;3.75;;;2.95;;
1533;SDS011;760;48.822;9.304;2022-10-31T05:17:40;5.97;;;3.42;;
1533;SDS011;760;48.822;9.304;2022-10-31T05:20:06;4.07;;;3.73;;
1533;SDS011;760;48.822;9.304;2022-10-31T05:22:32;4.07;;;3.67;;
1533;SDS011;760;48.822;9.304;2022-10-31T05:24:57;4.70;;;3.30;;
1533;SDS011;760;48.822;9.304;2022-10-31T05:27:23;4.57;;;3.60;;
1533;SDS011;760;48.822;9.304;2022-10-31T05:29:48;3.53;;;3.23;;
1533;SDS011;760;48.822;9.304;2022-10-31T05:32:14;3.80;;;3.50;;
1533;SDS011;760;48.822;9.304;2022-10-31T05:34:40;4.37;;;3.70;;
1533;SDS011;760;48.822;9.304;2022-10-31T05:37:05;3.37;;;3.17;;
1533;SDS011;760;48.822;9.304;2022-10-31T05:39:31;4.60;;;3.20;;
1533;SDS011;760;48.822;9.304;2022-10-31T05:41:56;4.83;;;3.93;;
1533;SDS011;760;48.822;9.304;2022-10-31T05:44:22;4.27;;;3.87;;
1533;SDS011;760;48.822;9.304;2022-10-31T05:46:48;4.73;;;3.90;;
1533;SDS011;760;48.822;9.304;2022-10-31T05:49:13;5.03;;;3.50;;
1533;SDS011;760;48.822;9.304;2022-10-31T05:51:39;4.63;;;3.37;;
1533;SDS011;760;48.822;9.304;2022-10-31T05:54:04;4.50;;;3.57;;
1533;SDS011;760;48.822;9.304;2022-10-31T05:56:30;10.13;;;3.70;;
1533;SDS011;760;48.822;9.304;2022-10-31T05:58:55;6.10;;;2.50;;
1533;SDS011;760;48.822;9.304;2022-10-31T06:01:21;6.20;;;4.50;;
1533;SDS011;760;48.822;9.304;2022-10-31T06:03:47;4.40;;;3.50;;
1533;SDS011;760;48.822;9.304;2022-10-31T06:06:12;3.97;;;3.63;;
1533;SDS011;760;48.822;9.304;2022-10-31T06:08:38;3.73;;;3.43;;
1533;SDS011;760;48.822;9.304;2022-10-31T06:11:04;3.80;;;3.00;;
1533;SDS011;760;48.822;9.304;2022-10-31T06:13:29;4.70;;;4.30;;
1533;SDS011;760;48.822;9.304;2022-10-31T06:15:57;3.60;;;3.30;;
1533;SDS011;760;48.822;9.304;2022-10-31T06:18:23;4.03;;;3.72;;
1533;SDS011;760;48.822;9.304;2022-10-31T06:20:49;4.07;;;3.03;;
1533;SDS011;760;48.822;9.304;2022-10-31T06:23:15;3.40;;;3.10;;
1533;SDS011;760;48.822;9.304;2022-10-31T06:25:40;3.57;;;3.27;;
1533;SDS011;760;48.822;9.304;2022-10-31T06:28:06;4.47;;;4.07;;
1533;SDS011;760;48.822;9.304;2022-10-31T06:30:32;4.27;;;3.83;;
1533;SDS011;760;48.822;9.304;2022-10-31T06:33:06;4.20;;;3.87;;
1533;SDS011;760;48.822;9.304;2022-10-31T06:35:32;3.75;;;3.45;;
1533;SDS011;760;48.822;9.304;2022-10-31T06:37:58;3.70;;;3.10;;
1533;SDS011;760;48.822;9.304;2022-10-31T06:40:24;4.90;;;4.07;;
1533;SDS011;760;48.822;9.304;2022-10-31T06:42:56;7.23;;;4.90;;
1533;SDS011;760;48.822;9.304;2022-10-31T06:45:22;5.13;;;4.25;;
1533;SDS011;760;48.822;9.304;2022-10-31T06:47:54;4.53;;;4.13;;
1533;SDS011;760;48.822;9.304;2022-10-31T06:50:21;5.30;;;4.53;;
1533;SDS011;760;48.822;9.304;2022-10-31T06:52:53;7.68;;;4.35;;
1533;SDS011;760;48.822;9.304;2022-10-31T06:55:21;19.48;;;4.15;;
1533;SDS011;760;48.822;9.304;2022-10-31T06:57:58;4.90;;;4.40;;
1533;SDS011;760;48.822;9.304;2022-10-31T07:00:25;4.97;;;4.07;;
1533;SDS011;760;48.822;9.304;2022-10-31T07:03:00;8.45;;;5.05;;
1533;SDS011;760;48.822;9.304;2022-10-31T07:05:28;15.18;;;4.05;;
1533;SDS011;760;48.822;9.304;2022-10-31T07:07:55;7.33;;;5.20;;
1533;SDS011;760;48.822;9.304;2022-10-31T07:10:23;4.72;;;4.32;;
1533;SDS011;760;48.822;9.304;2022-10-31T07:12:57;5.72;;;4.40;;
1533;SDS011;760;48.822;9.304;2022-10-31T07:15:25;11.23;;;4.53;;
1533;SDS011;760;48.822;9.304;2022-10-31T07:17:52;5.50;;;4.38;;
1533;SDS011;760;48.822;9.304;2022-10-31T07:20:18;7.20;;;5.30;;
1533;SDS011;760;48.822;9.304;2022-10-31T07:22:44;8.20;;;5.40;;
1533;SDS011;760;48.822;9.304;2022-10-31T07:25:10;4.53;;;4.20;;
1533;SDS011;760;48.822;9.304;2022-10-31T07:27:40;6.10;;;5.60;;
1533;SDS011;760;48.822;9.304;2022-10-31T07:30:07;6.93;;;6.03;;
1533;SDS011;760;48.822;9.304;2022-10-31T07:32:38;13.63;;;10.00;;
1533;SDS011;760;48.822;9.304;2022-10-31T07:35:06;6.67;;;5.87;;
1533;SDS011;760;48.822;9.304;2022-10-31T07:37:32;11.07;;;7.83;;
1533;SDS011;760;48.822;9.304;2022-10-31T07:39:58;8.07;;;4.70;;
1533;SDS011;760;48.822;9.304;2022-10-31T07:42:23;5.40;;;4.50;;
1533;SDS011;760;48.822;9.304;2022-10-31T07:44:49;5.40;;;4.87;;
1533;SDS011;760;48.822;9.304;2022-10-31T07:47:15;4.43;;;4.03;;
1533;SDS011;760;48.822;9.304;2022-10-31T07:49:40;5.67;;;4.50;;
1533;SDS011;760;48.822;9.304;2022-10-31T07:52:06;5.70;;;4.27;;
1533;SDS011;760;48.822;9.304;2022-10-31T07:54:31;8.17;;;4.70;;
1533;SDS011;760;48.822;9.304;2022-10-31T07:56:57;12.93;;;4.80;;
1533;SDS011;760;48.822;9.304;2022-10-31T07:59:22;8.20;;;4.63;;
1533;SDS011;760;48.822;9.304;2022-10-31T08:01:48;4.30;;;3.90;;
1533;SDS011;760;48.822;9.304;2022-10-31T08:04:13;4.93;;;4.47;;
1533;SDS011;760;48.822;9.304;2022-10-31T08:06:39;9.37;;;5.10;;
1533;SDS011;760;48.822;9.304;2022-10-31T08:09:05;7.67;;;4.60;;
1533;SDS011;760;48.822;9.304;2022-10-31T08:11:30;4.93;;;4.53;;
1533;SDS011;760;48.822;9.304;2022-10-31T08:13:56;4.93;;;4.53;;
1533;SDS011;760;48.822;9.304;2022-10-31T08:16:21;4.23;;;3.83;;
1533;SDS011;760;48.822;9.304;2022-10-31T08:18:47;3.77;;;3.17;;
1533;SDS011;760;48.822;9.304;2022-10-31T08:21:12;6.20;;;4.40;;
1533;SDS011;760;48.822;9.304;2022-10-31T08:23:38;3.90;;;3.60;;
1533;SDS011;760;48.822;9.304;2022-10-31T08:26:04;4.60;;;4.17;;
1533;SDS011;760;48.822;9.304;2022-10-31T08:28:31;4.43;;;3.60;;
1533;SDS011;760;48.822;9.304;2022-10-31T08:30:57;4.23;;;3.70;;
1533;SDS011;760;48.822;9.304;2022-10-31T08:33:23;3.50;;;3.20;;
1533;SDS011;760;48.822;9.304;2022-10-31T08:35:49;4.17;;;3.77;;
1533;SDS011;760;48.822;9.304;2022-10-31T08:38:14;7.67;;;4.00;;
1533;SDS011;760;48.822;9.304;2022-10-31T08:40:40;4.40;;;3.53;;
1533;SDS011;760;48.822;9.304;2022-10-31T08:43:11;4.00;;;3.57;;
1533;SDS011;760;48.822;9.304;2022-10-31T08:45:38;3.53;;;3.33;;
1533;SDS011;760;48.822;9.304;2022-10-31T08:48:04;5.30;;;4.10;;
1533;SDS011;760;48.822;9.304;2022-10-31T08:50:32;4.47;;;4.07;;
1533;SDS011;760;48.822;9.304;2022-10-31T08:53:04;4.30;;;3.80;;
1533;SDS011;760;48.822;9.304;2022-10-31T08:55:32;3.83;;;3.53;;
1533;SDS011;760;48.822;9.304;2022-10-31T08:58:01;4.63;;;4.23;;
1533;SDS011;760;48.822;9.304;2022-10-31T09:00:28;8.50;;;3.67;;
1533;SDS011;760;48.822;9.304;2022-10-31T09:02:54;3.73;;;3.43;;
1533;SDS011;760;48.822;9.304;2022-10-31T09:05:21;7.80;;;4.33;;
1533;SDS011;760;48.822;9.304;2022-10-31T09:07:47;6.87;;;4.47;;
1533;SDS011;760;48.822;9.304;2022-10-31T09:10:12;5.40;;;4.47;;
1533;SDS011;760;48.822;9.304;2022-10-31T09:12:38;4.37;;;3.67;;
1533;SDS011;760;48.822;9.304;2022-10-31T09:15:03;4.90;;;4.27;;
1533;SDS011;760;48.822;9.304;2022-10-31T09:17:31;10.20;;;3.97;;
1533;SDS011;760;48.822;9.304;2022-10-31T09:19:57;4.03;;;3.63;;
1533;SDS011;760;48.822;9.304;2022-10-31T09:22:22;3.27;;;3.00;;
1533;SDS011;760;48.822;9.304;2022-10-31T09:24:48;4.53;;;3.53;;
1533;SDS011;760;48.822;9.304;2022-10-31T09:27:13;4.57;;;4.20;;
1533;SDS011;760;48.822;9.304;2022-10-31T09:29:39;5.73;;;3.37;;
1533;SDS011;760;48.822;9.304;2022-10-31T09:32:05;4.30;;;3.90;;
1533;SDS011;760;48.822;9.304;2022-10-31T09:34:30;3.97;;;3.60;;
1533;SDS011;760;48.822;9.304;2022-10-31T09:36:56;4.67;;;3.60;;
1533;SDS011;760;48.822;9.304;2022-10-31T09:39:21;5.30;;;4.73;;
1533;SDS011;760;48.822;9.304;2022-10-31T09:47:15;5.33;;;4.37;;
1533;SDS011;760;48.822;9.304;2022-10-31T09:52:40;5.13;;;4.23;;
1533;SDS011;760;48.822;9.304;2022-10-31T09:55:14;5.63;;;4.33;;
1533;SDS011;760;48.822;9.304;2022-10-31T09:58:01;9.03;;;4.07;;
1533;SDS011;760;48.822;9.304;2022-10-31T10:00:27;5.30;;;3.73;;
1533;SDS011;760;48.822;9.304;2022-10-31T10:02:59;9.43;;;4.50;;
1533;SDS011;760;48.822;9.304;2022-10-31T10:08:26;7.87;;;5.20;;
1533;SDS011;760;48.822;9.304;2022-10-31T10:22:21;3.90;;;3.37;;
1533;SDS011;760;48.822;9.304;2022-10-31T10:30:16;4.57;;;4.17;;
1533;SDS011;760;48.822;9.304;2022-10-31T10:32:46;4.57;;;4.10;;
1533;SDS011;760;48.822;9.304;2022-10-31T10:35:44;5.37;;;3.93;;
1533;SDS011;760;48.822;9.304;2022-10-31T10:38:29;4.33;;;3.10;;
1533;SDS011;760;48.822;9.304;2022-10-31T10:41:17;4.53;;;4.13;;
1533;SDS011;760;48.822;9.304;2022-10-31T10:43:45;6.60;;;4.10;;
1533;SDS011;760;48.822;9.304;2022-10-31T11:00:15;7.17;;;4.20;;
1533;SDS011;760;48.822;9.304;2022-10-31T11:02:46;4.60;;;3.80;;
1533;SDS011;760;48.822;9.304;2022-10-31T11:05:15;9.83;;;3.80;;
1533;SDS011;760;48.822;9.304;2022-10-31T11:08:03;5.80;;;4.23;;
1533;SDS011;760;48.822;9.304;2022-10-31T11:10:30;7.43;;;4.90;;
1533;SDS011;760;48.822;9.304;2022-10-31T11:18:38;4.80;;;4.40;;
1533;SDS011;760;48.822;9.304;2022-10-31T11:21:19;3.80;;;3.40;;
1533;SDS011;760;48.822;9.304;2022-10-31T11:23:45;6.80;;;4.47;;
1533;SDS011;760;48.822;9.304;2022-10-31T11:26:18;7.23;;;6.10;;
1533;SDS011;760;48.822;9.304;2022-10-31T11:28:44;5.27;;;4.50;;
1533;SDS011;760;48.822;9.304;2022-10-31T11:31:24;7.60;;;4.33;;
1533;SDS011;760;48.822;9.304;2022-10-31T11:33:59;4.40;;;4.00;;
1533;SDS011;760;48.822;9.304;2022-10-31T11:36:29;5.30;;;4.40;;
1533;SDS011;760;48.822;9.304;2022-10-31T11:38:56;5.03;;;4.20;;
1533;SDS011;760;48.822;9.304;2022-10-31T11:41:33;6.97;;;4.90;;
1533;SDS011;760;48.822;9.304;2022-10-31T11:44:12;6.23;;;4.80;;
1533;SDS011;760;48.822;9.304;2022-10-31T11:46:46;6.90;;;4.83;;
1533;SDS011;760;48.822;9.304;2022-10-31T11:51:58;7.13;;;5.30;;
1533;SDS011;760;48.822;9.304;2022-10-31T11:54:32;7.17;;;3.93;;
1533;SDS011;760;48.822;9.304;2022-10-31T11:57:29;9.20;;;5.43;;
1533;SDS011;760;48.822;9.304;2022-10-31T11:59:58;5.00;;;4.53;;
1533;SDS011;760;48.822;9.304;2022-10-31T12:02:25;5.40;;;4.70;;
1533;SDS011;760;48.822;9.304;2022-10-31T12:05:02;6.53;;;4.90;;
1533;SDS011;760;48.822;9.304;2022-10-31T12:07:29;7.03;;;5.23;;
1533;SDS011;760;48.822;9.304;2022-10-31T12:09:55;7.13;;;4.93;;
1533;SDS011;760;48.822;9.304;2022-10-31T12:12:35;8.43;;;6.50;;
1533;SDS011;760;48.822;9.304;2022-10-31T12:20:52;5.50;;;4.50;;
1533;SDS011;760;48.822;9.304;2022-10-31T12:23:41;4.83;;;4.13;;
1533;SDS011;760;48.822;9.304;2022-10-31T12:29:19;6.17;;;4.47;;
1533;SDS011;760;48.822;9.304;2022-10-31T12:32:15;5.93;;;4.60;;
1533;SDS011;760;48.822;9.304;2022-10-31T12:46:02;11.23;;;4.50;;
1533;SDS011;760;48.822;9.304;2022-10-31T12:57:03;9.03;;;4.70;;
1533;SDS011;760;48.822;9.304;2022-10-31T12:59:48;5.27;;;4.73;;
1533;SDS011;760;48.822;9.304;2022-10-31T13:05:06;6.50;;;4.93;;
1533;SDS011;760;48.822;9.304;2022-10-31T13:07:42;5.50;;;5.00;;
1533;SDS011;760;48.822;9.304;2022-10-31T13:13:06;5.77;;;4.70;;
1533;SDS011;760;48.822;9.304;2022-10-31T13:15:45;5.63;;;4.90;;
1533;SDS011;760;48.822;9.304;2022-10-31T13:18:32;5.80;;;5.17;;
1533;SDS011;760;48.822;9.304;2022-10-31T13:21:02;6.00;;;4.70;;
1533;SDS011;760;48.822;9.304;2022-10-31T13:23:33;8.83;;;6.10;;
1533;SDS011;760;48.822;9.304;2022-10-31T13:26:06;6.27;;;5.20;;
1533;SDS011;760;48.822;9.304;2022-10-31T13:28:54;9.03;;;5.73;;
1533;SDS011;760;48.822;9.304;2022-10-31T13:31:28;7.57;;;4.97;;
1533;SDS011;760;48.822;9.304;2022-10-31T13:34:01;11.63;;;8.00;;
1533;SDS011;760;48.822;9.304;2022-10-31T13:36:36;9.07;;;6.40;;
1533;SDS011;760;48.822;9.304;2022-10-31T13:41:54;6.10;;;5.50;;
1533;SDS011;760;48.822;9.304;2022-10-31T13:44:43;7.43;;;4.87;;
1533;SDS011;760;48.822;9.304;2022-10-31T13:47:28;6.83;;;4.60;;
1533;SDS011;760;48.822;9.304;2022-10-31T13:50:04;6.23;;;5.23;;
1533;SDS011;760;48.822;9.304;2022-10-31T13:52:31;10.83;;;5.90;;
1533;SDS011;760;48.822;9.304;2022-10-31T13:54:57;12.13;;;5.80;;
1533;SDS011;760;48.822;9.304;2022-10-31T13:57:37;11.60;;;5.60;;
1533;SDS011;760;48.822;9.304;2022-10-31T14:02:43;6.33;;;5.40;;
1533;SDS011;760;48.822;9.304;2022-10-31T14:05:22;10.90;;;8.13;;
1533;SDS011;760;48.822;9.304;2022-10-31T14:07:49;7.87;;;5.73;;
1533;SDS011;760;48.822;9.304;2022-10-31T14:13:22;6.80;;;6.20;;
1533;SDS011;760;48.822;9.304;2022-10-31T14:16:27;7.37;;;5.10;;
1533;SDS011;760;48.822;9.304;2022-10-31T14:18:58;6.17;;;5.03;;
1533;SDS011;760;48.822;9.304;2022-10-31T14:21:28;7.00;;;5.70;;
1533;SDS011;760;48.822;9.304;2022-10-31T14:23:56;8.30;;;6.40;;
1533;SDS011;760;48.822;9.304;2022-10-31T14:28:51;6.33;;;5.50;;
1533;SDS011;760;48.822;9.304;2022-10-31T14:34:15;6.70;;;5.97;;
1533;SDS011;760;48.822;9.304;2022-10-31T14:36:50;8.60;;;6.00;;
1533;SDS011;760;48.822;9.304;2022-10-31T14:39:32;7.37;;;4.83;;
1533;SDS011;760;48.822;9.304;2022-10-31T14:42:21;7.67;;;4.80;;
1533;SDS011;760;48.822;9.304;2022-10-31T14:47:58;7.23;;;4.70;;
1533;SDS011;760;48.822;9.304;2022-10-31T14:53:21;5.70;;;4.53;;
1533;SDS011;760;48.822;9.304;2022-10-31T14:55:55;7.20;;;5.33;;
1533;SDS011;760;48.822;9.304;2022-10-31T15:01:04;5.07;;;4.43;;
1533;SDS011;760;48.822;9.304;2022-10-31T15:06:05;7.40;;;5.30;;
1533;SDS011;760;48.822;9.304;2022-10-31T15:11:10;5.97;;;5.27;;
1533;SDS011;760;48.822;9.304;2022-10-31T15:13:51;7.63;;;5.70;;
1533;SDS011;760;48.822;9.304;2022-10-31T15:16:24;6.53;;;5.30;;
1533;SDS011;760;48.822;9.304;2022-10-31T15:19:04;4.80;;;4.40;;
1533;SDS011;760;48.822;9.304;2022-10-31T15:21:39;9.57;;;6.67;;
1533;SDS011;760;48.822;9.304;2022-10-31T15:24:12;7.20;;;5.50;;
1533;SDS011;760;48.822;9.304;2022-10-31T15:26:50;15.90;;;6.03;;
1533;SDS011;760;48.822;9.304;2022-10-31T15:29:19;7.73;;;6.93;;
1533;SDS011;760;48.822;9.304;2022-10-31T15:31:54;9.17;;;7.50;;
1533;SDS011;760;48.822;9.304;2022-10-31T15:37:04;7.27;;;6.03;;
1533;SDS011;760;48.822;9.304;2022-10-31T15:39:34;9.50;;;7.30;;
1533;SDS011;760;48.822;9.304;2022-10-31T15:41:59;10.33;;;8.17;;
1533;SDS011;760;48.822;9.304;2022-10-31T15:44:33;7.53;;;6.83;;
1533;SDS011;760;48.822;9.304;2022-10-31T15:47:02;7.50;;;6.70;;
1533;SDS011;760;48.822;9.304;2022-10-31T15:49:35;15.23;;;8.00;;
1533;SDS011;760;48.822;9.304;2022-10-31T15:52:17;8.03;;;6.10;;
1533;SDS011;760;48.822;9.304;2022-10-31T15:54:50;9.43;;;6.20;;
1533;SDS011;760;48.822;9.304;2022-10-31T15:57:19;7.57;;;6.33;;
1533;SDS011;760;48.822;9.304;2022-10-31T15:59:46;17.27;;;6.57;;
1533;SDS011;760;48.822;9.304;2022-10-31T16:02:13;8.77;;;6.53;;
1533;SDS011;760;48.822;9.304;2022-10-31T16:07:49;7.73;;;6.97;;
1533;SDS011;760;48.822;9.304;2022-10-31T16:10:23;9.87;;;6.53;;
1533;SDS011;760;48.822;9.304;2022-10-31T16:12:50;9.30;;;6.03;;
1533;SDS011;760;48.822;9.304;2022-10-31T16:15:17;11.70;;;6.20;;
1533;SDS011;760;48.822;9.304;2022-10-31T16:17:46;7.27;;;6.50;;
1533;SDS011;760;48.822;9.304;2022-10-31T16:20:31;10.50;;;7.10;;
1533;SDS011;760;48.822;9.304;2022-10-31T16:23:02;8.27;;;7.40;;
1533;SDS011;760;48.822;9.304;2022-10-31T16:28:49;7.07;;;5.60;;
1533;SDS011;760;48.822;9.304;2022-10-31T16:30:50;10.17;;;7.00;;
1533;SDS011;760;48.822;9.304;2022-10-31T16:33:27;7.80;;;6.63;;
1533;SDS011;760;48.822;9.304;2022-10-31T16:38:52;9.50;;;7.70;;
1533;SDS011;760;48.822;9.304;2022-10-31T16:41:18;10.40;;;7.10;;
1533;SDS011;760;48.822;9.304;2022-10-31T16:43:44;11.10;;;7.20;;
1533;SDS011;760;48.822;9.304;2022-10-31T16:46:12;8.97;;;7.40;;
1533;SDS011;760;48.822;9.304;2022-10-31T16:48:40;8.53;;;7.63;;
1533;SDS011;760;48.822;9.304;2022-10-31T16:51:07;14.30;;;7.43;;
1533;SDS011;760;48.822;9.304;2022-10-31T16:53:32;8.20;;;7.30;;
1533;SDS011;760;48.822;9.304;2022-10-31T16:55:58;9.97;;;6.53;;
1533;SDS011;760;48.822;9.304;2022-10-31T16:58:29;13.13;;;8.37;;
1533;SDS011;760;48.822;9.304;2022-10-31T17:00:58;9.00;;;8.10;;
1533;SDS011;760;48.822;9.304;2022-10-31T17:03:24;9.90;;;8.00;;
1533;SDS011;760;48.822;9.304;2022-10-31T17:05:50;18.00;;;9.03;;
1533;SDS011;760;48.822;9.304;2022-10-31T17:08:17;9.10;;;8.20;;
1533;SDS011;760;48.822;9.304;2022-10-31T17:10:43;14.83;;;9.60;;
1533;SDS011;760;48.822;9.304;2022-10-31T17:13:13;11.77;;;9.07;;
1533;SDS011;760;48.822;9.304;2022-10-31T17:15:46;17.30;;;11.87;;
1533;SDS011;760;48.822;9.304;2022-10-31T17:18:17;20.03;;;12.13;;
1533;SDS011;760;48.822;9.304;2022-10-31T17:20:43;16.77;;;11.93;;
1533;SDS011;760;48.822;9.304;2022-10-31T17:23:10;16.00;;;11.17;;
1533;SDS011;760;48.822;9.304;2022-10-31T17:25:37;18.50;;;12.80;;
1533;SDS011;760;48.822;9.304;2022-10-31T17:28:03;14.97;;;11.50;;
1533;SDS011;760;48.822;9.304;2022-10-31T17:30:29;16.73;;;11.60;;
1533;SDS011;760;48.822;9.304;2022-10-31T17:32:55;13.83;;;10.80;;
1533;SDS011;760;48.822;9.304;2022-10-31T17:35:24;14.30;;;9.40;;
1533;SDS011;760;48.822;9.304;2022-10-31T17:37:50;9.20;;;7.40;;
1533;SDS011;760;48.822;9.304;2022-10-31T17:40:16;10.27;;;7.90;;
1533;SDS011;760;48.822;9.304;2022-10-31T17:42:50;8.90;;;8.00;;
1533;SDS011;760;48.822;9.304;2022-10-31T17:45:17;9.47;;;7.10;;
1533;SDS011;760;48.822;9.304;2022-10-31T17:47:45;10.80;;;7.33;;
1533;SDS011;760;48.822;9.304;2022-10-31T17:50:12;10.37;;;6.83;;
1533;SDS011;760;48.822;9.304;2022-10-31T17:52:37;8.97;;;6.80;;
1533;SDS011;760;48.822;9.304;2022-10-31T17:55:03;11.53;;;7.60;;
1533;SDS011;760;48.822;9.304;2022-10-31T17:57:32;9.73;;;7.00;;
1533;SDS011;760;48.822;9.304;2022-10-31T17:59:59;12.90;;;8.53;;
1533;SDS011;760;48.822;9.304;2022-10-31T18:02:25;9.30;;;8.10;;
1533;SDS011;760;48.822;9.304;2022-10-31T18:04:50;10.17;;;8.20;;
1533;SDS011;760;48.822;9.304;2022-10-31T18:07:16;12.40;;;8.73;;
1533;SDS011;760;48.822;9.304;2022-10-31T18:09:43;11.50;;;7.30;;
1533;SDS011;760;48.822;9.304;2022-10-31T18:12:11;10.73;;;6.57;;
1533;SDS011;760;48.822;9.304;2022-10-31T18:14:37;10.77;;;7.20;;
1533;SDS011;760;48.822;9.304;2022-10-31T18:17:02;11.53;;;6.97;;
1533;SDS011;760;48.822;9.304;2022-10-31T18:19:28;9.00;;;7.50;;
1533;SDS011;760;48.822;9.304;2022-10-31T18:21:53;10.97;;;8.07;;
1533;SDS011;760;48.822;9.304;2022-10-31T18:24:19;11.20;;;7.40;;
1533;SDS011;760;48.822;9.304;2022-10-31T18:26:45;8.30;;;7.10;;
1533;SDS011;760;48.822;9.304;2022-10-31T18:29:10;9.20;;;6.83;;
1533;SDS011;760;48.822;9.304;2022-10-31T18:31:36;11.93;;;8.60;;
1533;SDS011;760;48.822;9.304;2022-10-31T18:34:02;8.97;;;8.07;;
1533;SDS011;760;48.822;9.304;2022-10-31T18:36:28;12.97;;;10.00;;
1533;SDS011;760;48.822;9.304;2022-10-31T18:38:53;8.67;;;7.67;;
1533;SDS011;760;48.822;9.304;2022-10-31T18:41:19;10.70;;;7.33;;
1533;SDS011;760;48.822;9.304;2022-10-31T18:43:44;11.20;;;8.67;;
1533;SDS011;760;48.822;9.304;2022-10-31T18:46:13;10.80;;;8.00;;
1533;SDS011;760;48.822;9.304;2022-10-31T18:48:41;11.10;;;8.47;;
1533;SDS011;760;48.822;9.304;2022-10-31T18:51:08;15.07;;;8.50;;
1533;SDS011;760;48.822;9.304;2022-10-31T18:53:37;9.70;;;6.60;;
1533;SDS011;760;48.822;9.304;2022-10-31T18:56:06;7.80;;;6.97;;
1533;SDS011;760;48.822;9.304;2022-10-31T18:58:33;9.90;;;6.83;;
1533;SDS011;760;48.822;9.304;2022-10-31T19:01:03;11.57;;;8.00;;
1533;SDS011;760;48.822;9.304;2022-10-31T19:03:30;8.20;;;7.03;;
1533;SDS011;760;48.822;9.304;2022-10-31T19:05:56;10.13;;;8.83;;
1533;SDS011;760;48.822;9.304;2022-10-31T19:08:21;9.77;;;8.20;;
1533;SDS011;760;48.822;9.304;2022-10-31T19:10:47;12.90;;;9.47;;
1533;SDS011;760;48.822;9.304;2022-10-31T19:13:13;15.10;;;9.20;;
1533;SDS011;760;48.822;9.304;2022-10-31T19:15:38;12.57;;;9.50;;
1533;SDS011;760;48.822;9.304;2022-10-31T19:18:04;9.00;;;8.07;;
1533;SDS011;760;48.822;9.304;2022-10-31T19:20:30;9.10;;;8.20;;
1533;SDS011;760;48.822;9.304;2022-10-31T19:22:56;12.57;;;8.83;;
1533;SDS011;760;48.822;9.304;2022-10-31T19:25:22;9.10;;;8.20;;
1533;SDS011;760;48.822;9.304;2022-10-31T19:27:48;11.27;;;7.73;;
1533;SDS011;760;48.822;9.304;2022-10-31T19:30:13;13.27;;;9.87;;
1533;SDS011;760;48.822;9.304;2022-10-31T19:32:39;14.73;;;9.43;;
1533;SDS011;760;48.822;9.304;2022-10-31T19:35:05;12.70;;;9.40;;
1533;SDS011;760;48.822;9.304;2022-10-31T19:37:33;9.40;;;8.50;;
1533;SDS011;760;48.822;9.304;2022-10-31T19:39:59;14.10;;;8.70;;
1533;SDS011;760;48.822;9.304;2022-10-31T19:42:25;10.33;;;8.63;;
1533;SDS011;760;48.822;9.304;2022-10-31T19:44:52;11.83;;;8.87;;
1533;SDS011;760;48.822;9.304;2022-10-31T19:47:19;10.83;;;9.03;;
1533;SDS011;760;48.822;9.304;2022-10-31T19:49:44;10.40;;;8.90;;
1533;SDS011;760;48.822;9.304;2022-10-31T19:52:10;13.90;;;8.50;;
1533;SDS011;760;48.822;9.304;2022-10-31T19:54:35;14.10;;;9.87;;
1533;SDS011;760;48.822;9.304;2022-10-31T19:57:01;11.50;;;7.80;;
1533;SDS011;760;48.822;9.304;2022-10-31T19:59:27;9.40;;;8.50;;
1533;SDS011;760;48.822;9.304;2022-10-31T20:01:52;11.60;;;7.83;;
1533;SDS011;760;48.822;9.304;2022-10-31T20:04:18;13.13;;;7.73;;
1533;SDS011;760;48.822;9.304;2022-10-31T20:06:43;10.37;;;8.97;;
1533;SDS011;760;48.822;9.304;2022-10-31T20:09:10;9.33;;;8.03;;
1533;SDS011;760;48.822;9.304;2022-10-31T20:11:39;10.90;;;8.30;;
1533;SDS011;760;48.822;9.304;2022-10-31T20:14:06;9.50;;;8.50;;
1533;SDS011;760;48.822;9.304;2022-10-31T20:16:33;12.73;;;9.10;;
1533;SDS011;760;48.822;9.304;2022-10-31T20:18:58;12.13;;;8.50;;
1533;SDS011;760;48.822;9.304;2022-10-31T20:21:25;8.93;;;8.07;;
1533;SDS011;760;48.822;9.304;2022-10-31T20:23:55;11.83;;;9.67;;
1533;SDS011;760;48.822;9.304;2022-10-31T20:26:22;13.20;;;8.20;;
1533;SDS011;760;48.822;9.304;2022-10-31T20:28:48;12.90;;;9.03;;
1533;SDS011;760;48.822;9.304;2022-10-31T20:31:17;9.93;;;8.57;;
1533;SDS011;760;48.822;9.304;2022-10-31T20:33:44;11.33;;;8.70;;
1533;SDS011;760;48.822;9.304;2022-10-31T20:36:10;13.30;;;9.00;;
1533;SDS011;760;48.822;9.304;2022-10-31T20:38:37;10.57;;;9.53;;
1533;SDS011;760;48.822;9.304;2022-10-31T20:41:04;12.07;;;9.73;;
1533;SDS011;760;48.822;9.304;2022-10-31T20:43:31;11.77;;;9.67;;
1533;SDS011;760;48.822;9.304;2022-10-31T20:46:01;11.03;;;8.77;;
1533;SDS011;760;48.822;9.304;2022-10-31T20:48:29;13.30;;;8.47;;
1533;SDS011;760;48.822;9.304;2022-10-31T20:50:58;10.20;;;9.20;;
1533;SDS011;760;48.822;9.304;2022-10-31T20:53:25;13.87;;;8.93;;
1533;SDS011;760;48.822;9.304;2022-10-31T20:56:01;13.07;;;9.30;;
1533;SDS011;760;48.822;9.304;2022-10-31T20:58:28;11.37;;;9.17;;
1533;SDS011;760;48.822;9.304;2022-10-31T21:00:54;13.70;;;9.07;;
1533;SDS011;760;48.822;9.304;2022-10-31T21:03:19;11.60;;;7.87;;
1533;SDS011;760;48.822;9.304;2022-10-31T21:05:55;10.53;;;9.20;;
1533;SDS011;760;48.822;9.304;2022-10-31T21:08:23;8.50;;;7.70;;
1533;SDS011;760;48.822;9.304;2022-10-31T21:10:49;10.90;;;8.27;;
1533;SDS011;760;48.822;9.304;2022-10-31T21:13:15;10.60;;;8.97;;
1533;SDS011;760;48.822;9.304;2022-10-31T21:15:41;11.40;;;8.70;;
1533;SDS011;760;48.822;9.304;2022-10-31T21:18:07;10.07;;;7.97;;
1533;SDS011;760;48.822;9.304;2022-10-31T21:20:33;10.07;;;8.30;;
1533;SDS011;760;48.822;9.304;2022-10-31T21:22:59;8.30;;;7.47;;
1533;SDS011;760;48.822;9.304;2022-10-31T21:25:25;13.77;;;7.50;;
1533;SDS011;760;48.822;9.304;2022-10-31T21:27:51;10.73;;;7.77;;
1533;SDS011;760;48.822;9.304;2022-10-31T21:30:16;10.17;;;7.67;;
1533;SDS011;760;48.822;9.304;2022-10-31T21:32:42;9.67;;;7.57;;
1533;SDS011;760;48.822;9.304;2022-10-31T21:35:08;8.60;;;7.00;;
1533;SDS011;760;48.822;9.304;2022-10-31T21:37:33;9.37;;;7.63;;
1533;SDS011;760;48.822;9.304;2022-10-31T21:39:59;13.40;;;7.47;;
1533;SDS011;760;48.822;9.304;2022-10-31T21:42:24;11.83;;;7.57;;
1533;SDS011;760;48.822;9.304;2022-10-31T21:44:50;10.17;;;9.03;;